Time;durP1;ratioP1;P1;durP2;ratioP2;P2;SDS_P1;SDS_P2;PMS_P1;PMS_P2;Temp;Humidity;BMP_temperature;BMP_pressure;BME280_temperature;BME280_humidity;BME280_pressure;Samples;Min_cycle;Max_cycle;Signal;HPM_P1;HPM_P2
2021/09/07 08:24:00;;;;;;;21.48;13.35;;;21.50;99.90;;;;;;5090904;27;20574;-67
2021/09/07 08:26:26;;;;;;;19.95;12.75;;;19.50;99.90;;;;;;5090905;28;20163;-67
2021/09/07 08:28:52;;;;;;;20.67;13.55;;;19.50;99.90;;;;;;5091290;28;20636;-67
2021/09/07 08:31:17;;;;;;;18.33;11.80;;;19.70;99.90;;;;;;5090790;28;20170;-67
2021/09/07 08:33:43;;;;;;;24.50;13.02;;;19.70;99.90;;;;;;5090902;28;20250;-67
2021/09/07 08:36:08;;;;;;;19.85;12.35;;;19.80;99.90;;;;;;5090722;28;20505;-67
2021/09/07 08:38:34;;;;;;;19.67;12.35;;;19.90;99.90;;;;;;5089401;28;20583;-67
2021/09/07 08:41:00;;;;;;;17.98;12.85;;;19.90;99.90;;;;;;5090714;28;20163;-66
2021/09/07 08:43:26;;;;;;;21.60;13.15;;;19.90;99.90;;;;;;5090492;28;20226;-66
2021/09/07 08:45:53;;;;;;;22.93;13.33;;;20.10;99.90;;;;;;5090470;28;20666;-66
2021/09/07 08:48:21;;;;;;;18.02;12.77;;;20.10;99.90;;;;;;5090501;28;20174;-65
2021/09/07 08:50:47;;;;;;;18.23;12.73;;;20.20;99.90;;;;;;5090473;28;20159;-66
2021/09/07 08:53:13;;;;;;;16.45;12.27;;;20.20;99.90;;;;;;5090324;28;20220;-66
2021/09/07 08:55:39;;;;;;;19.60;11.93;;;20.20;99.90;;;;;;5090232;28;20187;-66
2021/09/07 08:58:05;;;;;;;20.55;12.43;;;20.30;99.90;;;;;;5090297;28;20182;-66
2021/09/07 09:00:34;;;;;;;16.52;11.52;;;20.30;99.90;;;;;;5090193;28;20171;-66
2021/09/07 09:03:12;;;;;;;18.40;12.25;;;20.30;99.90;;;;;;5090105;28;20191;-66
2021/09/07 09:05:41;;;;;;;16.30;11.63;;;20.40;99.90;;;;;;5090158;28;20155;-66
2021/09/07 09:08:11;;;;;;;12.55;11.02;;;20.40;99.90;;;;;;5090109;28;20167;-66
2021/09/07 09:10:37;;;;;;;16.75;12.07;;;20.40;99.90;;;;;;5089995;28;20155;-66
2021/09/07 09:13:07;;;;;;;18.25;12.43;;;20.50;99.90;;;;;;5089981;28;20178;-66
2021/09/07 09:15:33;;;;;;;18.08;12.40;;;20.50;99.90;;;;;;5090022;28;20659;-66
2021/09/07 09:18:30;;;;;;;19.17;11.63;;;20.60;99.90;;;;;;5088647;28;20182;-66
2021/09/07 09:20:56;;;;;;;16.40;11.68;;;20.60;99.90;;;;;;5089473;28;20660;-66
2021/09/07 09:23:21;;;;;;;15.43;11.43;;;20.60;99.90;;;;;;5089566;28;20246;-66
2021/09/07 09:25:47;;;;;;;17.38;10.95;;;20.60;99.90;;;;;;5089824;28;20672;-65
2021/09/07 09:28:21;;;;;;;14.57;10.50;;;20.60;99.90;;;;;;5088437;28;20534;-66
2021/09/07 09:30:48;;;;;;;15.60;11.38;;;20.60;99.90;;;;;;5089702;28;20166;-66
2021/09/07 09:33:20;;;;;;;16.20;11.80;;;20.50;99.90;;;;;;5088469;28;20199;-66
2021/09/07 09:35:50;;;;;;;16.30;11.20;;;20.60;99.90;;;;;;5075851;28;20168;-66
2021/09/07 09:38:18;;;;;;;12.20;10.15;;;20.60;99.90;;;;;;5076027;28;20531;-66
2021/09/07 09:40:50;;;;;;;13.18;10.60;;;20.60;99.90;;;;;;5075997;28;20202;-66
2021/09/07 09:43:28;;;;;;;15.25;10.75;;;20.70;99.90;;;;;;5075894;28;20204;-65
2021/09/07 09:45:55;;;;;;;12.15;10.63;;;20.70;99.90;;;;;;5075933;28;20518;-65
2021/09/07 09:48:29;;;;;;;12.73;10.43;;;20.80;99.90;;;;;;5075852;28;20164;-67
2021/09/07 09:50:56;;;;;;;15.07;10.75;;;20.80;99.90;;;;;;5074586;28;20179;-67
2021/09/07 09:53:23;;;;;;;14.68;11.05;;;20.80;99.90;;;;;;5075846;28;20164;-67
2021/09/07 09:55:50;;;;;;;13.43;10.23;;;20.90;99.90;;;;;;5075687;28;20195;-67
2021/09/07 09:58:17;;;;;;;10.82;9.35;;;21.00;99.90;;;;;;5075713;28;20187;-67
2021/09/07 10:00:47;;;;;;;10.38;8.50;;;21.10;99.90;;;;;;5074327;28;20178;-67
2021/09/07 10:03:14;;;;;;;14.07;9.95;;;21.10;99.90;;;;;;5074328;28;20828;-67
2021/09/07 10:05:41;;;;;;;11.88;9.50;;;21.20;99.90;;;;;;5075583;28;20160;-67
2021/09/07 10:08:08;;;;;;;10.70;9.07;;;21.10;99.90;;;;;;5075518;28;20163;-67
2021/09/07 10:10:37;;;;;;;12.52;9.65;;;21.20;99.90;;;;;;5075467;28;20209;-67
2021/09/07 10:13:07;;;;;;;17.30;9.77;;;21.30;99.90;;;;;;5075417;28;20221;-67
2021/09/07 10:15:40;;;;;;;9.80;8.80;;;21.30;99.90;;;;;;5075385;28;20225;-67
2021/09/07 10:24:05;;;;;;;10.20;9.02;;;21.60;99.90;;;;;;5075301;28;20222;-67
2021/09/07 10:26:42;;;;;;;12.23;9.32;;;21.60;99.90;;;;;;5075379;28;20569;-67
2021/09/07 10:29:17;;;;;;;9.30;8.38;;;21.70;99.90;;;;;;5073850;28;20170;-67
2021/09/07 10:31:50;;;;;;;10.90;8.88;;;21.80;99.90;;;;;;5073826;28;20194;-67
2021/09/07 10:34:28;;;;;;;9.27;7.85;;;21.80;99.90;;;;;;5075114;28;20163;-67
2021/09/07 10:37:01;;;;;;;10.32;8.90;;;21.90;99.90;;;;;;5074985;28;20206;-67
2021/09/07 10:39:38;;;;;;;11.32;8.70;;;22.00;99.90;;;;;;5074816;28;20241;-67
2021/09/07 10:42:24;;;;;;;9.40;8.48;;;22.00;99.90;;;;;;5074837;28;20691;-67
2021/09/07 10:45:00;;;;;;;9.05;8.23;;;22.10;99.90;;;;;;5074295;28;20203;-67
2021/09/07 10:47:41;;;;;;;12.18;8.93;;;22.10;99.90;;;;;;5074195;28;20168;-67
2021/09/07 10:50:06;;;;;;;9.95;8.82;;;22.20;99.90;;;;;;5074730;28;20164;-68
2021/09/07 10:52:34;;;;;;;8.45;7.63;;;22.20;99.90;;;;;;5074619;28;20628;-67
2021/09/07 10:55:11;;;;;;;9.43;8.48;;;22.30;99.90;;;;;;5074423;28;20191;-67
2021/09/07 10:57:56;;;;;;;10.77;8.30;;;22.40;99.90;;;;;;5074518;28;20629;-67
2021/09/07 11:00:21;;;;;;;9.73;7.88;;;22.50;99.90;;;;;;5074545;28;20629;-67
2021/09/07 11:02:56;;;;;;;12.80;8.45;;;22.60;99.90;;;;;;5074357;28;20213;-68
2021/09/07 11:05:46;;;;;;;8.98;8.07;;;22.60;99.90;;;;;;5073038;28;20175;-68
2021/09/07 11:08:17;;;;;;;8.25;7.45;;;22.60;99.90;;;;;;5074160;28;20268;-68
2021/09/07 11:10:54;;;;;;;10.45;7.57;;;22.80;99.90;;;;;;5074247;28;20228;-68
2021/09/07 11:13:26;;;;;;;8.50;7.65;;;22.50;99.90;;;;;;5074113;28;20190;-68
2021/09/07 11:15:54;;;;;;;11.50;8.27;;;22.50;99.90;;;;;;5074113;28;20168;-68
2021/09/07 11:18:26;;;;;;;10.05;8.48;;;22.50;99.90;;;;;;5074144;28;20171;-68
2021/09/07 11:20:54;;;;;;;8.93;7.07;;;22.50;99.90;;;;;;5074137;28;20525;-67
2021/09/07 11:23:25;;;;;;;7.65;7.00;;;22.50;99.90;;;;;;5073832;28;20268;-68
2021/09/07 11:26:04;;;;;;;13.95;7.28;;;22.60;99.90;;;;;;5073949;28;20220;-68
2021/09/07 11:28:32;;;;;;;7.10;6.45;;;22.60;99.90;;;;;;5073917;28;20199;-68
2021/09/07 11:30:58;;;;;;;8.15;7.55;;;22.50;99.90;;;;;;5073874;28;20533;-68
2021/09/07 11:33:28;;;;;;;8.38;7.57;;;22.50;99.90;;;;;;5073694;28;20199;-67
2021/09/07 11:35:56;;;;;;;8.02;7.15;;;22.60;99.90;;;;;;5073794;28;20170;-68
2021/09/07 11:38:28;;;;;;;32.60;9.15;;;22.60;99.90;;;;;;5073849;28;20349;-68
2021/09/07 11:40:59;;;;;;;10.32;7.35;;;22.60;99.90;;;;;;5073729;28;20251;-68
2021/09/07 11:43:39;;;;;;;8.65;7.85;;;22.60;99.90;;;;;;5073712;28;20233;-68
2021/09/07 11:46:11;;;;;;;9.02;8.13;;;22.60;99.90;;;;;;5073640;28;20254;-68
2021/09/07 11:48:39;;;;;;;8.13;7.38;;;22.60;99.90;;;;;;5073613;28;20722;-68
2021/09/07 11:51:05;;;;;;;8.52;7.68;;;22.60;99.90;;;;;;5072252;28;20180;-68
2021/09/07 11:53:32;;;;;;;9.77;7.80;;;22.60;99.90;;;;;;5073504;28;20223;-68
2021/09/07 11:55:58;;;;;;;8.85;6.82;;;22.60;99.90;;;;;;5073445;28;20187;-68
2021/09/07 11:58:29;;;;;;;7.43;6.70;;;22.60;99.90;;;;;;5073217;28;20176;-68
2021/09/07 12:01:10;;;;;;;7.63;6.90;;;22.60;99.90;;;;;;5073495;28;20215;-68
2021/09/07 12:03:35;;;;;;;10.63;6.70;;;22.60;99.90;;;;;;5073376;28;20251;-68
2021/09/07 12:06:02;;;;;;;7.53;6.82;;;22.60;99.90;;;;;;5073462;28;20199;-68
2021/09/07 12:08:34;;;;;;;8.27;6.90;;;22.60;99.90;;;;;;5073326;28;20198;-68
2021/09/07 12:10:59;;;;;;;7.53;6.78;;;22.60;99.90;;;;;;5073356;28;20164;-68
2021/09/07 12:13:25;;;;;;;7.63;6.93;;;22.60;99.90;;;;;;5071918;28;20294;-68
2021/09/07 12:15:51;;;;;;;7.57;6.88;;;22.60;99.90;;;;;;5073291;28;20166;-68
2021/09/07 12:18:39;;;;;;;10.23;6.57;;;22.60;99.90;;;;;;5073136;28;20175;-68
2021/09/07 12:21:10;;;;;;;7.72;6.93;;;22.80;99.90;;;;;;5073274;28;20583;-68
2021/09/07 12:23:38;;;;;;;11.82;6.80;;;23.00;99.90;;;;;;5071737;28;20576;-68
2021/09/07 12:26:04;;;;;;;6.63;6.07;;;23.20;99.90;;;;;;5073235;28;20203;-68
2021/09/07 12:28:30;;;;;;;6.90;6.30;;;23.20;99.90;;;;;;5073116;28;20200;-68
2021/09/07 12:31:10;;;;;;;6.72;6.13;;;23.30;99.90;;;;;;5073123;28;20178;-68
2021/09/07 12:33:54;;;;;;;6.40;5.82;;;23.40;99.90;;;;;;5073105;28;20207;-68
2021/09/07 12:36:21;;;;;;;7.15;6.40;;;23.50;99.90;;;;;;5073141;28;20168;-68
2021/09/07 12:38:49;;;;;;;10.25;7.03;;;23.60;99.90;;;;;;5073114;28;20160;-68
2021/09/07 12:41:19;;;;;;;7.07;6.38;;;23.80;99.90;;;;;;5073037;28;20179;-68
2021/09/07 12:43:47;;;;;;;6.50;5.97;;;23.90;99.90;;;;;;5073221;28;20625;-68
2021/09/07 12:46:15;;;;;;;7.55;6.57;;;24.10;99.90;;;;;;5073056;28;20203;-68
2021/09/07 12:48:44;;;;;;;7.63;6.90;;;24.20;99.90;;;;;;5072967;28;20692;-68
2021/09/07 12:51:11;;;;;;;15.10;6.82;;;24.30;99.90;;;;;;5073004;28;20178;-68
2021/09/07 12:53:43;;;;;;;6.93;6.28;;;24.40;99.90;;;;;;5072827;28;20191;-68
2021/09/07 12:56:10;;;;;;;6.50;6.00;;;24.50;99.90;;;;;;5072891;28;20187;-68
2021/09/07 12:58:39;;;;;;;7.07;6.50;;;24.70;99.90;;;;;;5072863;28;20618;-68
2021/09/07 13:01:08;;;;;;;7.13;5.75;;;24.80;99.90;;;;;;5072899;28;20210;-68
2021/09/07 13:03:37;;;;;;;7.05;6.45;;;24.90;99.90;;;;;;5072807;28;20168;-68
2021/09/07 13:06:04;;;;;;;6.35;5.85;;;25.00;99.90;;;;;;5072749;28;20247;-68
2021/09/07 13:08:29;;;;;;;7.40;6.68;;;25.10;99.90;;;;;;5072895;28;20172;-68
2021/09/07 13:10:55;;;;;;;7.15;6.28;;;25.10;99.90;;;;;;5075331;28;20501;-68
2021/09/07 13:13:21;;;;;;;6.80;6.35;;;25.20;99.90;;;;;;5076368;28;20253;-68
2021/09/07 13:15:47;;;;;;;8.48;6.35;;;25.30;99.90;;;;;;5076464;28;20202;-68
2021/09/07 13:18:12;;;;;;;6.47;5.93;;;25.30;99.90;;;;;;5076421;28;20603;-68
2021/09/07 13:20:38;;;;;;;6.30;5.90;;;25.30;99.90;;;;;;5076307;28;20696;-68
2021/09/07 13:23:05;;;;;;;7.55;6.78;;;25.20;99.90;;;;;;5076005;28;20223;-68
2021/09/07 13:25:31;;;;;;;7.43;6.25;;;25.30;99.90;;;;;;5076328;28;20168;-68
2021/09/07 13:27:56;;;;;;;6.55;5.90;;;25.30;99.90;;;;;;5076351;28;20241;-68
2021/09/07 13:30:22;;;;;;;6.80;6.20;;;25.40;99.90;;;;;;5076177;28;20525;-68
2021/09/07 13:32:48;;;;;;;6.80;6.18;;;25.40;99.90;;;;;;5076126;28;20187;-68
2021/09/07 13:35:13;;;;;;;8.70;6.20;;;25.50;99.90;;;;;;5076034;28;20195;-68
2021/09/07 13:37:39;;;;;;;6.18;5.70;;;25.50;99.90;;;;;;5074800;28;20584;-68
2021/09/07 13:40:05;;;;;;;10.02;6.00;;;25.50;99.90;;;;;;5076048;28;20172;-68
2021/09/07 13:42:30;;;;;;;6.20;5.80;;;25.40;99.90;;;;;;5076071;28;20195;-68
2021/09/07 13:44:56;;;;;;;6.65;6.05;;;25.40;99.90;;;;;;5074628;28;20203;-68
2021/09/07 13:47:21;;;;;;;6.85;6.10;;;25.40;99.90;;;;;;5074643;28;20180;-68
2021/09/07 13:49:47;;;;;;;9.05;6.47;;;25.50;99.90;;;;;;5075844;28;20168;-68
2021/09/07 13:52:13;;;;;;;6.25;5.68;;;25.60;99.90;;;;;;5074818;28;20294;-68
2021/09/07 13:54:38;;;;;;;6.45;5.85;;;25.70;99.90;;;;;;5075717;28;20196;-68
2021/09/07 13:57:04;;;;;;;5.80;5.30;;;25.80;99.90;;;;;;5075761;28;20164;-68
2021/09/07 13:59:30;;;;;;;5.70;5.25;;;25.90;99.90;;;;;;5075646;28;20209;-68
2021/09/07 14:01:56;;;;;;;6.00;5.47;;;26.00;99.90;;;;;;5075678;28;20171;-68
2021/09/07 14:04:22;;;;;;;6.10;5.70;;;26.20;99.90;;;;;;5074304;28;20182;-68
2021/09/07 14:06:48;;;;;;;5.60;5.20;;;26.40;99.90;;;;;;5075645;28;20160;-68
2021/09/07 14:09:13;;;;;;;6.38;5.65;;;26.50;99.90;;;;;;5075486;28;20175;-68
2021/09/07 14:11:39;;;;;;;5.72;5.32;;;26.50;99.90;;;;;;5075448;28;20590;-68
2021/09/07 14:14:05;;;;;;;5.07;4.68;;;26.50;99.90;;;;;;5075356;28;20199;-68
2021/09/07 14:16:31;;;;;;;7.32;5.97;;;26.40;99.90;;;;;;5075387;28;20251;-68
2021/09/07 14:18:57;;;;;;;5.93;5.43;;;26.30;99.90;;;;;;5075303;28;20206;-68
2021/09/07 14:21:23;;;;;;;5.55;5.22;;;26.40;99.90;;;;;;5075236;28;20156;-68
2021/09/07 14:23:48;;;;;;;5.07;4.68;;;26.40;99.90;;;;;;5075023;28;20692;-68
2021/09/07 14:26:14;;;;;;;6.45;5.85;;;26.40;99.90;;;;;;5073973;28;20172;-68
2021/09/07 14:28:40;;;;;;;6.22;5.75;;;26.40;99.90;;;;;;5075114;28;20255;-68
2021/09/07 14:31:05;;;;;;;6.10;5.40;;;26.40;99.90;;;;;;5075079;28;20202;-68
2021/09/07 14:33:31;;;;;;;6.43;5.93;;;26.40;99.90;;;;;;5074952;28;20640;-68
2021/09/07 14:35:57;;;;;;;5.72;5.32;;;26.50;99.90;;;;;;5075003;28;20164;-68
2021/09/07 14:38:22;;;;;;;6.55;5.90;;;26.50;99.90;;;;;;5075030;28;20172;-68
2021/09/07 14:40:48;;;;;;;5.55;5.07;;;26.50;99.90;;;;;;5073664;28;20168;-68
2021/09/07 14:43:14;;;;;;;6.07;5.47;;;26.60;99.90;;;;;;5074809;28;20628;-68
2021/09/07 14:45:39;;;;;;;5.70;5.15;;;26.60;99.90;;;;;;5074885;28;20569;-68
2021/09/07 14:48:05;;;;;;;5.85;5.32;;;26.60;99.90;;;;;;5074672;28;20186;-68
2021/09/07 14:50:31;;;;;;;8.65;6.13;;;26.50;99.90;;;;;;5074708;28;20179;-68
2021/09/07 14:52:56;;;;;;;6.40;6.00;;;26.50;99.90;;;;;;5074612;28;20191;-68
2021/09/07 14:55:22;;;;;;;6.30;5.80;;;26.40;99.90;;;;;;5074540;28;20180;-68
2021/09/07 14:57:48;;;;;;;9.05;6.13;;;26.30;99.90;;;;;;5074640;28;20221;-68
2021/09/07 15:00:14;;;;;;;7.13;6.40;;;26.20;99.90;;;;;;5074421;28;20683;-68
2021/09/07 15:02:40;;;;;;;7.50;6.90;;;26.10;99.90;;;;;;5074476;28;20175;-68
2021/09/07 15:05:06;;;;;;;9.23;7.35;;;26.10;99.90;;;;;;5073151;28;20220;-68
2021/09/07 15:07:32;;;;;;;9.68;7.68;;;26.10;99.90;;;;;;5074344;28;20250;-68
2021/09/07 15:09:57;;;;;;;8.82;7.80;;;26.00;99.90;;;;;;5074315;28;20199;-68
2021/09/07 15:12:23;;;;;;;9.10;8.10;;;25.90;99.90;;;;;;5074112;28;20195;-68
2021/09/07 15:14:48;;;;;;;9.18;8.38;;;25.90;99.90;;;;;;5074266;28;20170;-68
2021/09/07 15:17:15;;;;;;;10.23;8.52;;;25.80;99.90;;;;;;5074089;28;20159;-68
2021/09/07 15:19:41;;;;;;;9.32;8.38;;;25.80;99.90;;;;;;5074143;28;20498;-68
2021/09/07 15:22:07;;;;;;;10.07;9.18;;;25.70;99.90;;;;;;5073863;28;20318;-68
2021/09/07 15:24:32;;;;;;;11.75;8.60;;;25.70;99.90;;;;;;5074020;28;20168;-68
2021/09/07 15:26:59;;;;;;;13.18;8.82;;;25.90;99.90;;;;;;5073961;28;20272;-68
2021/09/07 15:29:25;;;;;;;11.32;9.55;;;25.90;99.90;;;;;;5073958;28;20164;-68
2021/09/07 15:31:55;;;;;;;10.38;8.43;;;25.70;99.90;;;;;;5073245;28;20168;-68
2021/09/07 15:34:20;;;;;;;9.57;8.68;;;25.70;99.90;;;;;;5073867;28;20166;-68
2021/09/07 15:36:46;;;;;;;9.13;8.23;;;25.60;99.90;;;;;;5073722;28;20172;-68
2021/09/07 15:39:13;;;;;;;21.10;10.57;;;25.60;99.90;;;;;;5073813;28;20617;-68
2021/09/07 15:41:40;;;;;;;14.23;8.95;;;25.50;99.90;;;;;;5073736;28;20191;-68
2021/09/07 15:44:05;;;;;;;10.50;9.25;;;25.50;99.90;;;;;;5072480;28;20179;-68
2021/09/07 15:46:32;;;;;;;11.10;9.25;;;25.60;99.90;;;;;;5073554;28;20164;-68
2021/09/07 15:48:57;;;;;;;10.57;8.35;;;25.60;99.90;;;;;;5073580;28;20206;-68
2021/09/07 15:51:23;;;;;;;13.13;9.10;;;25.50;99.90;;;;;;5073596;28;20208;-68
2021/09/07 15:53:50;;;;;;;12.98;8.50;;;25.40;99.90;;;;;;5073510;28;20237;-68
2021/09/07 15:56:17;;;;;;;10.90;8.27;;;25.30;99.90;;;;;;5073445;28;20708;-68
2021/09/07 15:58:43;;;;;;;9.98;8.80;;;25.20;99.90;;;;;;5072273;28;20263;-68
2021/09/07 16:01:09;;;;;;;14.20;9.07;;;25.00;99.90;;;;;;5073367;28;20168;-68
2021/09/07 16:03:36;;;;;;;11.73;9.20;;;24.80;99.90;;;;;;5073470;28;20251;-68
2021/09/07 16:06:03;;;;;;;19.95;11.23;;;24.60;99.90;;;;;;5073438;28;20178;-68
2021/09/07 16:08:28;;;;;;;36.67;12.85;;;24.30;99.90;;;;;;5073373;28;20174;-68
2021/09/07 16:10:54;;;;;;;10.95;8.65;;;24.20;99.90;;;;;;5072107;28;20778;-68
2021/09/07 16:13:20;;;;;;;10.38;8.50;;;24.10;99.90;;;;;;5071990;28;20207;-68
2021/09/07 16:15:46;;;;;;;14.77;8.32;;;24.00;99.90;;;;;;5073304;28;20195;-68
2021/09/07 16:18:11;;;;;;;14.30;9.20;;;23.90;99.90;;;;;;5073333;28;20170;-68
2021/09/07 16:20:37;;;;;;;13.82;7.55;;;23.90;99.90;;;;;;5073266;28;20187;-68
2021/09/07 16:23:02;;;;;;;15.27;8.05;;;23.90;99.90;;;;;;5073150;28;20306;-68
2021/09/07 16:25:29;;;;;;;12.75;8.10;;;23.90;99.90;;;;;;5073225;28;20190;-68
2021/09/07 16:27:56;;;;;;;9.55;8.50;;;24.00;99.90;;;;;;5073181;28;20168;-68
2021/09/07 16:30:23;;;;;;;11.07;8.18;;;24.10;99.90;;;;;;5073069;28;20183;-68
2021/09/07 16:32:49;;;;;;;7.95;7.30;;;23.90;99.90;;;;;;5073030;28;20204;-68
2021/09/07 16:35:14;;;;;;;8.52;7.68;;;23.80;99.90;;;;;;5073083;28;20159;-68
2021/09/07 16:37:40;;;;;;;12.82;9.13;;;23.70;99.90;;;;;;5073098;28;20187;-68
2021/09/07 16:40:09;;;;;;;8.27;7.57;;;23.60;99.90;;;;;;5071812;28;20629;-68
2021/09/07 16:42:35;;;;;;;8.90;7.70;;;23.50;99.90;;;;;;5073004;28;20259;-68
2021/09/07 16:45:00;;;;;;;10.30;7.40;;;23.60;99.90;;;;;;5075550;28;20302;-68
2021/09/07 16:47:26;;;;;;;12.60;8.10;;;23.60;99.90;;;;;;5077056;28;20704;-67
2021/09/07 16:49:52;;;;;;;8.20;7.25;;;23.70;99.90;;;;;;5077045;28;20526;-68
2021/09/07 16:52:17;;;;;;;9.90;7.25;;;23.70;99.90;;;;;;5076903;28;20191;-68
2021/09/07 16:57:11;;;;;;;11.52;7.78;;;23.50;99.90;;;;;;5076782;28;20220;-68
2021/09/07 16:59:39;;;;;;;10.07;7.90;;;23.50;99.90;;;;;;5076828;28;20164;-68
2021/09/07 17:02:04;;;;;;;8.35;7.65;;;23.50;99.90;;;;;;5076851;28;20502;-67
2021/09/07 17:04:30;;;;;;;11.18;8.60;;;23.60;99.90;;;;;;5076704;28;20175;-67
2021/09/07 17:06:55;;;;;;;8.30;7.50;;;23.70;99.90;;;;;;5076728;28;20168;-67
2021/09/07 17:09:21;;;;;;;14.88;9.35;;;23.60;99.90;;;;;;5076564;28;20615;-68
2021/09/07 17:11:47;;;;;;;12.93;9.65;;;23.30;99.90;;;;;;5076559;28;20178;-67
2021/09/07 17:14:12;;;;;;;19.85;12.32;;;23.20;99.90;;;;;;5076391;28;20531;-67
2021/09/07 17:16:38;;;;;;;10.10;8.68;;;23.20;99.90;;;;;;5076493;28;20190;-68
2021/09/07 17:19:07;;;;;;;8.93;7.53;;;23.20;99.90;;;;;;5076514;28;20168;-67
2021/09/07 17:21:33;;;;;;;8.30;7.55;;;23.20;99.90;;;;;;5076474;28;20248;-67
2021/09/07 17:24:00;;;;;;;7.47;6.85;;;23.10;99.90;;;;;;5075129;28;20274;-67
2021/09/07 17:26:26;;;;;;;7.75;6.93;;;23.00;99.90;;;;;;5076248;28;20267;-68
2021/09/07 17:28:52;;;;;;;8.48;7.53;;;23.00;99.90;;;;;;5076244;28;20250;-68
2021/09/07 17:31:26;;;;;;;10.80;7.93;;;23.00;99.90;;;;;;5076224;28;20559;-68
2021/09/07 17:39:09;;;;;;;12.57;8.45;;;22.70;99.90;;;;;;5076001;28;20207;-68
2021/09/07 17:41:36;;;;;;;8.88;7.97;;;22.60;99.90;;;;;;5075035;28;20179;-68
2021/09/07 17:44:02;;;;;;;10.50;8.43;;;22.40;99.90;;;;;;5075900;28;20159;-67
2021/09/07 17:46:29;;;;;;;12.85;9.02;;;22.30;99.90;;;;;;5075935;28;20171;-68
2021/09/07 17:48:55;;;;;;;13.32;8.88;;;22.10;99.90;;;;;;5075799;28;20246;-67
2021/09/07 17:51:20;;;;;;;13.23;7.57;;;21.90;99.90;;;;;;5075773;28;20274;-68
2021/09/07 17:53:46;;;;;;;14.77;9.75;;;21.80;99.90;;;;;;5075734;28;20320;-68
2021/09/07 17:56:12;;;;;;;12.50;8.73;;;21.60;99.90;;;;;;5075218;28;20249;-68
2021/09/07 17:58:39;;;;;;;11.05;8.85;;;21.50;99.90;;;;;;5074487;28;20172;-67
2021/09/07 18:01:04;;;;;;;12.95;9.63;;;21.40;99.90;;;;;;5075659;28;20168;-67
2021/09/07 18:03:32;;;;;;;12.27;8.98;;;21.30;99.90;;;;;;5075653;28;20179;-67
